createdAt,value
2018-12-15T00:00:11.042Z,85.22
2018-12-15T00:01:11.031Z,85.16
2018-12-15T00:02:11.013Z,85.47
2018-12-15T00:03:11.013Z,85.26
2018-12-15T00:04:10.997Z,85.26
2018-12-15T00:05:10.986Z,85.68
2018-12-15T00:06:10.972Z,85.16
2018-12-15T00:07:10.964Z,85.47
2018-12-15T00:08:10.956Z,85.36
2018-12-15T00:09:10.946Z,85.47
2018-12-15T00:10:10.931Z,85.47
2018-12-15T00:11:10.924Z,85.12
2018-12-15T00:12:10.914Z,85.47
2018-12-15T00:13:10.905Z,85.43
2018-12-15T00:14:10.886Z,85.26
2018-12-15T00:15:10.880Z,85.22
2018-12-15T00:16:10.867Z,85.01
2018-12-15T00:17:10.862Z,85.22
2018-12-15T00:18:10.855Z,84.74
2018-12-15T00:19:10.836Z,85.22
2018-12-15T00:20:10.831Z,84.70
2018-12-15T00:21:10.822Z,85.16
2018-12-15T00:22:10.805Z,85.16
2018-12-15T00:23:10.798Z,85.16
2018-12-15T00:24:10.786Z,85.43
2018-12-15T00:25:10.777Z,85.26
2018-12-15T00:26:10.757Z,85.33
2018-12-15T00:27:10.757Z,85.22
2018-12-15T00:28:10.749Z,85.05
2018-12-15T00:29:10.736Z,84.84
2018-12-15T00:30:10.724Z,85.12
2018-12-15T00:31:10.714Z,85.01
2018-12-15T00:32:10.706Z,84.53
2018-12-15T00:33:10.693Z,84.63
2018-12-15T00:34:10.685Z,84.84
2018-12-15T00:35:10.676Z,84.84
2018-12-15T00:36:10.666Z,84.95
2018-12-15T00:37:10.644Z,84.53
2018-12-15T00:38:10.637Z,84.11
2018-12-15T00:39:10.629Z,83.69
2018-12-15T00:40:10.621Z,84.32
2018-12-15T00:41:10.607Z,84.32
2018-12-15T00:42:10.600Z,84.63
2018-12-15T00:43:10.581Z,83.80
2018-12-15T00:44:10.578Z,84.32
2018-12-15T00:45:10.572Z,83.90
2018-12-15T00:46:10.556Z,84.11
2018-12-15T00:47:13.803Z,83.55
2018-12-15T00:48:10.536Z,83.23
2018-12-15T00:49:10.520Z,82.71
2018-12-15T00:50:10.518Z,83.03
2018-12-15T00:51:10.504Z,83.06
2018-12-15T00:52:10.492Z,83.17
2018-12-15T00:53:10.487Z,83.17
2018-12-15T00:54:10.471Z,82.86
2018-12-15T00:55:10.466Z,83.06
2018-12-15T00:56:10.452Z,82.65
2018-12-15T00:57:10.440Z,82.65
2018-12-15T00:58:10.432Z,82.54
2018-12-15T00:59:10.423Z,81.92
2018-12-15T01:00:10.406Z,82.75
2018-12-15T01:01:10.403Z,81.81
2018-12-15T01:02:10.388Z,82.23
2018-12-15T01:03:10.378Z,82.33
2018-12-15T01:04:10.368Z,82.23
2018-12-15T01:05:10.352Z,82.33
2018-12-15T01:06:10.340Z,81.81
2018-12-15T01:07:10.333Z,81.70
2018-12-15T01:08:10.323Z,81.39
2018-12-15T01:09:10.310Z,81.49
2018-12-15T01:10:10.302Z,81.29
2018-12-15T01:11:10.296Z,81.18
2018-12-15T01:12:10.284Z,81.18
2018-12-15T01:13:10.268Z,81.60
2018-12-15T01:14:10.260Z,81.29
2018-12-15T01:15:10.251Z,81.49
2018-12-15T01:16:10.241Z,81.39
2018-12-15T01:17:10.234Z,81.39
2018-12-15T01:18:10.219Z,80.13
2018-12-15T01:19:10.221Z,79.82
2018-12-15T01:20:10.201Z,79.40
2018-12-15T01:21:10.194Z,79.30
2018-12-15T01:22:10.177Z,79.09
2018-12-15T01:23:10.172Z,79.30
2018-12-15T01:24:10.155Z,79.19
2018-12-15T01:25:10.141Z,79.30
2018-12-15T01:26:10.134Z,79.19
2018-12-15T01:27:10.131Z,78.88
2018-12-15T01:28:10.119Z,78.99
2018-12-15T01:29:10.103Z,78.99
2018-12-15T01:30:10.093Z,79.09
2018-12-15T01:31:10.086Z,79.09
2018-12-15T01:32:10.073Z,78.88
2018-12-15T01:33:10.065Z,79.09
2018-12-15T01:34:10.049Z,79.09
2018-12-15T01:35:10.043Z,79.09
2018-12-15T01:36:10.039Z,79.09
2018-12-15T01:37:10.025Z,78.99
2018-12-15T01:38:10.009Z,78.88
2018-12-15T01:39:10.001Z,79.19
2018-12-15T01:40:09.983Z,78.88
2018-12-15T01:41:09.981Z,79.61
2018-12-15T01:42:09.974Z,79.40
2018-12-15T01:43:09.956Z,78.67
2018-12-15T01:44:09.947Z,78.88
2018-12-15T01:45:09.932Z,78.88
2018-12-15T01:46:09.927Z,78.77
2018-12-15T01:47:09.915Z,78.04
2018-12-15T01:48:09.905Z,77.73
2018-12-15T01:49:09.892Z,77.62
2018-12-15T01:50:09.899Z,78.46
2018-12-15T01:51:09.878Z,78.88
2018-12-15T01:52:09.859Z,77.83
2018-12-15T01:53:09.855Z,78.04
2018-12-15T01:54:09.841Z,77.94
2018-12-15T01:55:09.832Z,77.73
2018-12-15T01:56:09.830Z,77.42
2018-12-15T01:57:09.809Z,78.46
2018-12-15T01:58:09.857Z,78.15
2018-12-15T01:59:09.792Z,79.30
2018-12-15T02:00:09.783Z,78.77
2018-12-15T02:01:09.768Z,77.94
2018-12-15T02:02:09.759Z,77.73
2018-12-15T02:03:09.744Z,77.83
2018-12-15T02:04:09.735Z,77.94
2018-12-15T02:05:09.728Z,78.46
2018-12-15T02:06:09.713Z,77.83
2018-12-15T02:07:09.707Z,77.73
2018-12-15T02:08:09.695Z,77.62
2018-12-15T02:09:09.688Z,77.52
2018-12-15T02:10:09.674Z,77.34
2018-12-15T02:11:09.661Z,77.52
2018-12-15T02:12:09.649Z,77.97
2018-12-15T02:13:09.640Z,77.62
2018-12-15T02:14:09.635Z,77.62
2018-12-15T02:15:09.623Z,77.76
2018-12-15T02:16:09.609Z,77.10
2018-12-15T02:17:09.600Z,77.62
2018-12-15T02:18:09.589Z,77.20
2018-12-15T02:19:09.579Z,77.94
2018-12-15T02:20:09.568Z,77.52
2018-12-15T02:21:09.553Z,78.15
2018-12-15T02:22:09.551Z,77.62
2018-12-15T02:23:09.534Z,77.55
2018-12-15T02:24:09.529Z,76.79
2018-12-15T02:25:09.519Z,77.42
2018-12-15T02:26:09.507Z,77.66
2018-12-15T02:27:09.492Z,77.42
2018-12-15T02:28:09.493Z,77.45
2018-12-15T02:29:09.472Z,77.66
2018-12-15T02:30:09.474Z,78.08
2018-12-15T02:31:09.464Z,77.34
2018-12-15T02:32:09.441Z,76.82
2018-12-15T02:33:09.432Z,76.57
2018-12-15T02:34:09.418Z,77.73
2018-12-15T02:35:09.416Z,77.62
2018-12-15T02:36:09.397Z,77.20
2018-12-15T02:37:09.389Z,77.20
2018-12-15T02:38:09.386Z,76.79
2018-12-15T02:39:09.371Z,76.68
2018-12-15T02:40:09.369Z,77.52
2018-12-15T02:41:09.346Z,77.14
2018-12-15T02:42:09.339Z,77.42
2018-12-15T02:43:09.333Z,77.87
2018-12-15T02:44:09.311Z,77.52
2018-12-15T02:45:09.307Z,77.45
2018-12-15T02:46:09.299Z,77.31
2018-12-15T02:47:09.285Z,77.24
2018-12-15T02:48:09.289Z,77.62
2018-12-15T02:49:09.263Z,77.42
2018-12-15T02:50:09.253Z,77.62
2018-12-15T02:51:09.246Z,78.04
2018-12-15T02:52:09.233Z,77.83
2018-12-15T02:53:09.226Z,77.62
2018-12-15T02:54:09.213Z,77.83
2018-12-15T02:55:09.197Z,78.04
2018-12-15T02:56:09.204Z,78.08
2018-12-15T02:57:09.182Z,78.25
2018-12-15T02:58:09.169Z,78.15
2018-12-15T02:59:09.162Z,78.25
2018-12-15T03:00:09.143Z,78.15
2018-12-15T03:01:09.141Z,77.20
2018-12-15T03:02:09.125Z,77.55
2018-12-15T03:03:09.125Z,77.83
2018-12-15T03:04:09.108Z,77.52
2018-12-15T03:05:09.099Z,77.73
2018-12-15T03:06:09.085Z,77.94
2018-12-15T03:07:09.073Z,77.83
2018-12-15T03:08:09.060Z,77.62
2018-12-15T03:09:09.057Z,76.68
2018-12-15T03:10:09.039Z,77.45
2018-12-15T03:11:09.031Z,77.94
2018-12-15T03:12:09.021Z,77.52
2018-12-15T03:13:09.008Z,77.87
2018-12-15T03:14:09.094Z,76.68
2018-12-15T03:15:08.990Z,77.10
2018-12-15T03:16:08.985Z,77.20
2018-12-15T03:17:08.978Z,76.79
2018-12-15T03:18:08.954Z,76.79
2018-12-15T03:19:08.946Z,77.10
2018-12-15T03:20:08.935Z,75.74
2018-12-15T03:21:08.924Z,75.84
2018-12-15T03:22:08.917Z,76.16
2018-12-15T03:23:08.903Z,75.95
2018-12-15T03:24:08.891Z,76.79
2018-12-15T03:25:08.890Z,76.16
2018-12-15T03:26:08.875Z,75.84
2018-12-15T03:27:08.855Z,75.74
2018-12-15T03:28:08.858Z,75.15
2018-12-15T03:29:08.840Z,74.07
2018-12-15T03:30:08.836Z,73.65
2018-12-15T03:31:08.822Z,73.44
2018-12-15T03:32:08.812Z,72.71
2018-12-15T03:33:08.800Z,71.56
2018-12-15T03:34:08.795Z,71.45
2018-12-15T03:35:08.781Z,71.97
2018-12-15T03:36:08.766Z,70.72
2018-12-15T03:37:08.759Z,69.57
2018-12-15T03:38:08.752Z,69.26
2018-12-15T03:39:08.742Z,69.46
2018-12-15T03:40:08.724Z,69.04
2018-12-15T03:41:08.712Z,69.46
2018-12-15T03:42:08.703Z,69.46
2018-12-15T03:43:08.692Z,68.21
2018-12-15T03:44:08.690Z,68.94
2018-12-15T03:45:08.670Z,68.52
2018-12-15T03:46:08.659Z,68.31
2018-12-15T03:47:08.652Z,68.52
2018-12-15T03:48:08.640Z,68.41
2018-12-15T03:49:08.645Z,68.41
2018-12-15T03:50:08.619Z,67.79
2018-12-15T03:51:08.607Z,67.68
2018-12-15T03:52:08.600Z,68.31
2018-12-15T03:53:08.587Z,68.21
2018-12-15T03:54:08.573Z,68.52
2018-12-15T03:55:08.575Z,68.63
2018-12-15T03:56:08.554Z,68.00
2018-12-15T03:57:08.545Z,68.21
2018-12-15T03:58:08.537Z,68.10
2018-12-15T03:59:08.527Z,68.41
2018-12-15T04:00:08.510Z,68.41
2018-12-15T04:01:08.499Z,68.21
2018-12-15T04:02:08.495Z,68.63
2018-12-15T04:03:08.482Z,68.10
2018-12-15T04:04:08.475Z,68.52
2018-12-15T04:05:08.458Z,68.52
2018-12-15T04:06:08.449Z,68.94
2018-12-15T04:07:08.438Z,68.21
2018-12-15T04:08:08.427Z,68.84
2018-12-15T04:09:08.419Z,68.52
2018-12-15T04:10:08.411Z,68.21
2018-12-15T04:11:08.401Z,68.41
2018-12-15T04:12:08.383Z,68.31
2018-12-15T04:13:08.376Z,68.21
2018-12-15T04:14:08.363Z,68.73
2018-12-15T04:15:08.355Z,68.84
2018-12-15T04:16:08.344Z,68.52
2018-12-15T04:17:08.332Z,68.94
2018-12-15T04:18:08.323Z,68.84
2018-12-15T04:19:08.319Z,68.31
2018-12-15T04:20:08.310Z,68.73
2018-12-15T04:21:08.290Z,68.70
2018-12-15T04:22:08.276Z,68.38
2018-12-15T04:23:08.277Z,68.60
2018-12-15T04:24:08.255Z,68.91
2018-12-15T04:25:08.245Z,68.41
2018-12-15T04:26:08.238Z,68.91
2018-12-15T04:27:08.227Z,68.80
2018-12-15T04:28:08.218Z,68.80
2018-12-15T04:29:08.205Z,69.43
2018-12-15T04:30:08.194Z,69.12
2018-12-15T04:31:08.181Z,69.43
2018-12-15T04:32:08.189Z,69.78
2018-12-15T04:33:08.165Z,69.36
2018-12-15T04:34:08.153Z,69.64
2018-12-15T04:35:08.140Z,69.43
2018-12-15T04:36:08.131Z,69.88
2018-12-15T04:37:08.122Z,69.78
2018-12-15T04:38:08.114Z,69.36
2018-12-15T04:39:08.103Z,69.67
2018-12-15T04:40:08.091Z,69.88
2018-12-15T04:41:08.080Z,69.78
2018-12-15T04:42:08.068Z,70.20
2018-12-15T04:43:08.056Z,70.09
2018-12-15T04:44:08.057Z,69.88
2018-12-15T04:45:08.042Z,70.09
2018-12-15T04:46:08.022Z,69.78
2018-12-15T04:47:08.017Z,70.20
2018-12-15T04:48:11.322Z,70.20
2018-12-15T04:49:07.994Z,70.09
2018-12-15T04:50:07.989Z,69.88
2018-12-15T04:51:07.978Z,69.78
2018-12-15T04:52:07.959Z,69.88
2018-12-15T04:53:07.958Z,70.09
2018-12-15T04:54:07.949Z,69.85
2018-12-15T04:55:07.939Z,70.09
2018-12-15T04:56:07.917Z,69.74
2018-12-15T04:57:07.912Z,69.64
2018-12-15T04:58:07.896Z,71.03
2018-12-15T04:59:07.890Z,70.27
2018-12-15T05:00:07.876Z,70.30
2018-12-15T05:01:07.870Z,70.51
2018-12-15T05:02:07.865Z,70.40
2018-12-15T05:03:07.848Z,70.40
2018-12-15T05:04:07.840Z,70.61
2018-12-15T05:05:07.828Z,71.31
2018-12-15T05:06:07.827Z,70.58
2018-12-15T05:07:07.804Z,70.58
2018-12-15T05:08:07.798Z,71.31
2018-12-15T05:09:07.781Z,70.17
2018-12-15T05:10:07.784Z,70.09
2018-12-15T05:11:07.769Z,70.30
2018-12-15T05:12:07.754Z,71.24
2018-12-15T05:13:07.745Z,71.77
2018-12-15T05:14:07.728Z,72.15
2018-12-15T05:15:07.724Z,72.25
2018-12-15T05:16:07.727Z,73.41
2018-12-15T05:17:07.698Z,71.94
2018-12-15T05:18:07.702Z,70.17
2018-12-15T05:19:07.680Z,70.68
2018-12-15T05:20:07.670Z,70.68
2018-12-15T05:21:07.658Z,71.34
2018-12-15T05:22:07.650Z,70.61
2018-12-15T05:23:07.638Z,71.45
2018-12-15T05:24:07.627Z,70.93
2018-12-15T05:25:07.619Z,71.66
2018-12-15T05:26:07.604Z,71.42
2018-12-15T05:27:07.594Z,70.58
2018-12-15T05:28:07.583Z,70.17
2018-12-15T05:29:07.575Z,70.58
2018-12-15T05:30:07.566Z,70.27
2018-12-15T05:31:07.556Z,70.37
2018-12-15T05:32:07.547Z,71.52
2018-12-15T05:33:07.529Z,70.83
2018-12-15T05:34:07.518Z,70.83
2018-12-15T05:35:07.513Z,70.27
2018-12-15T05:36:07.501Z,70.27
2018-12-15T05:37:07.488Z,71.21
2018-12-15T05:38:07.478Z,71.11
2018-12-15T05:39:07.464Z,70.68
2018-12-15T05:40:07.456Z,70.37
2018-12-15T05:41:07.444Z,70.37
2018-12-15T05:42:07.432Z,70.37
2018-12-15T05:43:07.433Z,70.79
2018-12-15T05:44:07.417Z,70.90
2018-12-15T05:45:07.402Z,71.21
2018-12-15T05:46:07.392Z,71.42
2018-12-15T05:47:07.384Z,70.90
2018-12-15T05:48:07.373Z,71.31
2018-12-15T05:49:07.356Z,71.42
2018-12-15T05:50:07.344Z,71.31
2018-12-15T05:51:07.336Z,71.21
2018-12-15T05:52:07.330Z,71.14
2018-12-15T05:53:07.318Z,71.00
2018-12-15T05:54:07.309Z,72.36
2018-12-15T05:55:07.305Z,71.73
2018-12-15T05:56:07.292Z,72.50
2018-12-15T05:57:07.273Z,72.15
2018-12-15T05:58:07.266Z,72.36
2018-12-15T05:59:07.250Z,71.42
2018-12-15T06:00:07.249Z,71.84
2018-12-15T06:01:07.236Z,72.05
2018-12-15T06:02:07.222Z,72.36
2018-12-15T06:03:07.214Z,72.60
2018-12-15T06:04:07.204Z,72.39
2018-12-15T06:05:07.191Z,72.50
2018-12-15T06:06:07.185Z,72.19
2018-12-15T06:07:07.168Z,73.09
2018-12-15T06:08:07.163Z,72.78
2018-12-15T06:09:07.145Z,72.67
2018-12-15T06:10:07.138Z,72.88
2018-12-15T06:11:07.125Z,72.78
2018-12-15T06:12:07.122Z,72.67
2018-12-15T06:13:07.110Z,73.09
2018-12-15T06:14:07.102Z,73.61
2018-12-15T06:15:07.085Z,73.30
2018-12-15T06:16:07.078Z,73.41
2018-12-15T06:17:07.070Z,73.09
2018-12-15T06:18:07.057Z,73.09
2018-12-15T06:19:07.043Z,73.44
2018-12-15T06:20:07.035Z,74.07
2018-12-15T06:21:07.034Z,74.07
2018-12-15T06:22:07.013Z,74.14
2018-12-15T06:23:07.012Z,74.59
2018-12-15T06:24:06.993Z,74.87
2018-12-15T06:25:06.986Z,74.69
2018-12-15T06:26:06.970Z,74.80
2018-12-15T06:27:06.965Z,74.69
2018-12-15T06:28:06.949Z,74.69
2018-12-15T06:29:06.940Z,74.90
2018-12-15T06:30:06.932Z,74.90
2018-12-15T06:31:06.920Z,75.22
2018-12-15T06:32:06.905Z,75.22
2018-12-15T06:33:06.897Z,75.60
2018-12-15T06:34:06.882Z,75.49
2018-12-15T06:35:06.877Z,75.49
2018-12-15T06:36:06.864Z,75.39
2018-12-15T06:37:06.848Z,75.71
2018-12-15T06:38:06.844Z,75.29
2018-12-15T06:39:06.831Z,75.74
2018-12-15T06:40:06.820Z,75.74
2018-12-15T06:41:06.822Z,75.84
2018-12-15T06:42:06.802Z,76.26
2018-12-15T06:43:06.794Z,76.68
2018-12-15T06:44:06.781Z,77.00
2018-12-15T06:45:06.772Z,76.89
2018-12-15T06:46:06.756Z,76.57
2018-12-15T06:47:06.751Z,76.79
2018-12-15T06:48:07.394Z,76.89
2018-12-15T06:49:06.730Z,77.20
2018-12-15T06:50:06.717Z,77.00
2018-12-15T06:51:06.708Z,77.10
2018-12-15T06:52:06.695Z,77.52
2018-12-15T06:53:06.685Z,76.79
2018-12-15T06:54:06.678Z,77.31
2018-12-15T06:55:06.666Z,77.31
2018-12-15T06:56:06.656Z,77.62
2018-12-15T06:57:07.935Z,77.62
2018-12-15T06:58:06.630Z,77.52
2018-12-15T06:59:06.630Z,77.73
2018-12-15T07:00:06.607Z,77.62
2018-12-15T07:01:06.614Z,77.73
2018-12-15T07:02:06.597Z,76.89
2018-12-15T07:03:06.584Z,77.42
2018-12-15T07:04:06.572Z,77.42
2018-12-15T07:05:06.557Z,77.00
2018-12-15T07:06:06.549Z,76.89
2018-12-15T07:07:06.538Z,77.10
2018-12-15T07:08:06.533Z,77.20
2018-12-15T07:09:06.527Z,76.89
2018-12-15T07:10:06.506Z,76.89
2018-12-15T07:11:07.392Z,77.73
2018-12-15T07:12:06.487Z,77.42
2018-12-15T07:13:06.475Z,77.52
2018-12-15T07:14:06.464Z,77.42
2018-12-15T07:15:06.606Z,77.62
2018-12-15T07:16:06.449Z,77.62
2018-12-15T07:17:06.432Z,77.73
2018-12-15T07:18:06.426Z,77.62
2018-12-15T07:19:06.410Z,77.62
2018-12-15T07:20:06.407Z,77.94
2018-12-15T07:21:06.394Z,77.62
2018-12-15T07:22:06.382Z,77.83
2018-12-15T07:23:06.371Z,77.83
2018-12-15T07:24:06.365Z,78.04
2018-12-15T07:25:06.346Z,77.94
2018-12-15T07:26:06.333Z,77.80
2018-12-15T07:27:06.326Z,78.42
2018-12-15T07:28:06.320Z,78.32
2018-12-15T07:29:06.306Z,78.53
2018-12-15T07:30:06.315Z,78.95
2018-12-15T07:31:06.285Z,79.09
2018-12-15T07:32:06.274Z,79.09
2018-12-15T07:33:06.262Z,78.85
2018-12-15T07:34:06.254Z,78.77
2018-12-15T07:35:06.250Z,79.05
2018-12-15T07:36:06.233Z,79.05
2018-12-15T07:37:06.227Z,79.05
2018-12-15T07:38:06.216Z,78.88
2018-12-15T07:39:06.197Z,78.85
2018-12-15T07:40:06.196Z,78.95
2018-12-15T07:41:06.188Z,79.36
2018-12-15T07:42:06.170Z,78.85
2018-12-15T07:43:06.163Z,78.67
2018-12-15T07:44:06.174Z,78.95
2018-12-15T07:45:06.138Z,78.63
2018-12-15T07:46:06.136Z,78.74
2018-12-15T07:47:06.118Z,78.74
2018-12-15T07:48:06.119Z,79.36
2018-12-15T07:49:06.096Z,79.47
2018-12-15T07:50:06.086Z,79.26
2018-12-15T07:51:07.030Z,79.99
2018-12-15T07:52:06.067Z,79.26
2018-12-15T07:53:06.060Z,79.16
2018-12-15T07:54:06.048Z,78.85
2018-12-15T07:55:06.035Z,78.85
2018-12-15T07:56:06.029Z,78.74
2018-12-15T07:57:06.020Z,79.19
2018-12-15T07:58:06.006Z,79.26
2018-12-15T07:59:06.005Z,79.26
2018-12-15T08:00:05.984Z,79.68
2018-12-15T08:01:05.973Z,79.58
2018-12-15T08:02:05.968Z,80.31
2018-12-15T08:03:05.952Z,80.06
2018-12-15T08:04:05.944Z,79.54
2018-12-15T08:05:05.940Z,80.10
2018-12-15T08:06:05.924Z,79.89
2018-12-15T08:07:05.908Z,79.68
2018-12-15T08:08:05.892Z,80.27
2018-12-15T08:09:05.885Z,79.58
2018-12-15T08:10:05.876Z,79.54
2018-12-15T08:11:05.871Z,80.41
2018-12-15T08:12:05.852Z,79.64
2018-12-15T08:13:05.840Z,82.05
2018-12-15T08:14:05.839Z,79.44
2018-12-15T08:15:05.824Z,79.22
2018-12-15T08:16:05.816Z,79.64
2018-12-15T08:17:05.803Z,79.75
2018-12-15T08:18:05.796Z,79.64
2018-12-15T08:19:05.967Z,80.06
2018-12-15T08:20:05.772Z,79.64
2018-12-15T08:21:05.759Z,78.70
2018-12-15T08:22:05.748Z,79.12
2018-12-15T08:23:05.744Z,79.22
2018-12-15T08:24:05.729Z,79.44
2018-12-15T08:25:05.718Z,78.70
2018-12-15T08:26:05.709Z,79.22
2018-12-15T08:27:05.698Z,79.12
2018-12-15T08:28:05.698Z,79.47
2018-12-15T08:29:05.677Z,79.44
2018-12-15T08:30:05.659Z,79.44
2018-12-15T08:31:05.653Z,79.44
2018-12-15T08:32:05.644Z,79.22
2018-12-15T08:33:05.635Z,79.85
2018-12-15T08:34:05.640Z,79.68
2018-12-15T08:35:05.620Z,79.89
2018-12-15T08:36:05.602Z,80.06
2018-12-15T08:37:05.594Z,79.99
2018-12-15T08:38:05.578Z,80.10
2018-12-15T08:39:05.582Z,80.20
2018-12-15T08:40:05.560Z,80.31
2018-12-15T08:41:05.544Z,81.15
2018-12-15T08:42:05.534Z,81.25
2018-12-15T08:43:05.523Z,80.48
2018-12-15T08:44:05.521Z,80.90
2018-12-15T08:45:05.506Z,80.69
2018-12-15T08:46:05.492Z,80.90
2018-12-15T08:47:05.483Z,80.79
2018-12-15T08:48:05.470Z,81.00
2018-12-15T08:49:05.459Z,81.21
2018-12-15T08:50:05.447Z,81.42
2018-12-15T08:51:05.441Z,81.11
2018-12-15T08:52:05.431Z,80.16
2018-12-15T08:53:05.420Z,80.16
2018-12-15T08:54:05.405Z,80.48
2018-12-15T08:55:05.404Z,80.38
2018-12-15T08:56:05.388Z,80.27
2018-12-15T08:57:05.387Z,80.06
2018-12-15T08:58:05.367Z,80.58
2018-12-15T08:59:05.355Z,80.27
2018-12-15T09:00:05.346Z,80.38
2018-12-15T09:01:05.337Z,81.00
2018-12-15T09:02:05.322Z,81.42
2018-12-15T09:03:05.321Z,81.28
2018-12-15T09:04:05.306Z,81.11
2018-12-15T09:05:05.285Z,81.32
2018-12-15T09:06:05.280Z,80.13
2018-12-15T09:07:05.266Z,81.00
2018-12-15T09:08:05.256Z,80.65
2018-12-15T09:09:05.245Z,79.82
2018-12-15T09:10:05.231Z,79.82
2018-12-15T09:11:05.229Z,80.16
2018-12-15T09:12:05.211Z,80.58
2018-12-15T09:13:05.201Z,80.34
2018-12-15T09:14:05.189Z,80.65
2018-12-15T09:15:05.189Z,81.21
2018-12-15T09:16:05.179Z,81.18
2018-12-15T09:17:05.163Z,80.44
2018-12-15T09:18:05.147Z,80.44
2018-12-15T09:19:11.056Z,80.65
2018-12-15T09:20:06.123Z,80.13
2018-12-15T09:21:05.119Z,81.18
2018-12-15T09:22:11.555Z,80.55
2018-12-15T09:23:06.095Z,80.76
2018-12-15T09:24:05.092Z,80.58
2018-12-15T09:25:05.097Z,81.11
2018-12-15T09:26:05.067Z,80.24
2018-12-15T09:27:05.056Z,81.07
2018-12-15T09:28:05.048Z,79.61
2018-12-15T09:29:05.031Z,79.40
2018-12-15T09:30:05.016Z,79.71
2018-12-15T09:31:05.005Z,79.61
2018-12-15T09:32:04.995Z,79.61
2018-12-15T09:33:04.983Z,79.92
2018-12-15T09:34:04.977Z,79.92
2018-12-15T09:35:04.969Z,79.50
2018-12-15T09:36:04.951Z,79.75
2018-12-15T09:37:04.945Z,79.71
2018-12-15T09:38:04.936Z,79.85
2018-12-15T09:39:04.917Z,80.13
2018-12-15T09:40:04.915Z,80.02
2018-12-15T09:41:04.900Z,80.44
2018-12-15T09:42:04.891Z,80.34
2018-12-15T09:43:04.876Z,79.71
2018-12-15T09:44:04.866Z,79.50
2018-12-15T09:45:04.857Z,80.24
2018-12-15T09:46:04.845Z,80.27
2018-12-15T09:47:04.833Z,80.06
2018-12-15T09:48:04.817Z,80.16
2018-12-15T09:49:04.817Z,80.24
2018-12-15T09:50:04.804Z,80.13
2018-12-15T09:51:04.795Z,80.02
2018-12-15T09:52:04.843Z,80.13
2018-12-15T09:53:04.777Z,80.24
2018-12-15T09:54:04.760Z,80.24
2018-12-15T09:55:04.749Z,79.82
2018-12-15T09:56:04.746Z,80.13
2018-12-15T09:57:04.729Z,79.71
2018-12-15T09:58:04.735Z,79.82
2018-12-15T09:59:04.707Z,80.34
2018-12-15T10:00:04.698Z,79.92
2018-12-15T10:01:04.688Z,80.34
2018-12-15T10:02:04.678Z,80.55
2018-12-15T10:03:04.673Z,80.13
2018-12-15T10:04:04.654Z,80.13
2018-12-15T10:05:04.644Z,80.34
2018-12-15T10:06:04.628Z,80.24
2018-12-15T10:07:04.629Z,80.30
2018-12-15T10:08:04.612Z,79.99
2018-12-15T10:09:04.613Z,79.78
2018-12-15T10:10:04.585Z,80.13
2018-12-15T10:11:04.582Z,79.78
2018-12-15T10:12:04.565Z,79.82
2018-12-15T10:13:04.564Z,80.24
2018-12-15T10:14:04.544Z,80.44
2018-12-15T10:15:04.539Z,81.28
2018-12-15T10:16:04.521Z,80.34
2018-12-15T10:17:04.510Z,81.28
2018-12-15T10:18:04.501Z,80.30
2018-12-15T10:19:04.504Z,81.13
2018-12-15T10:20:04.490Z,81.31
2018-12-15T10:21:04.467Z,80.27
2018-12-15T10:22:04.461Z,79.99
2018-12-15T10:23:04.463Z,79.78
2018-12-15T10:24:04.437Z,79.95
2018-12-15T10:25:04.436Z,80.09
2018-12-15T10:26:04.420Z,79.85
2018-12-15T10:27:04.405Z,80.47
2018-12-15T10:28:04.397Z,80.37
2018-12-15T10:29:04.392Z,79.74
2018-12-15T10:30:04.386Z,79.53
2018-12-15T10:31:04.372Z,79.53
2018-12-15T10:32:04.355Z,80.05
2018-12-15T10:33:04.339Z,80.37
2018-12-15T10:34:04.326Z,79.74
2018-12-15T10:35:04.317Z,79.95
2018-12-15T10:36:04.315Z,79.95
2018-12-15T10:37:04.499Z,79.53
2018-12-15T10:38:04.298Z,79.64
2018-12-15T10:39:04.272Z,79.85
2018-12-15T10:40:04.263Z,79.74
2018-12-15T10:41:04.255Z,79.85
2018-12-15T10:42:04.247Z,80.05
2018-12-15T10:43:04.231Z,79.85
2018-12-15T10:44:04.217Z,80.20
2018-12-15T10:45:04.205Z,81.13
2018-12-15T10:46:04.195Z,81.24
2018-12-15T10:47:04.188Z,80.82
2018-12-15T10:48:04.173Z,80.99
2018-12-15T10:49:04.167Z,80.62
2018-12-15T10:50:04.154Z,81.24
2018-12-15T10:51:04.147Z,80.20
2018-12-15T10:52:04.130Z,79.95
2018-12-15T10:53:04.123Z,80.16
2018-12-15T10:54:04.120Z,80.30
2018-12-15T10:55:04.099Z,80.82
2018-12-15T10:56:04.085Z,80.20
2018-12-15T10:57:04.077Z,80.27
2018-12-15T10:58:04.079Z,81.31
2018-12-15T10:59:04.062Z,81.24
2018-12-15T11:00:04.062Z,81.13
2018-12-15T11:01:04.032Z,80.62
2018-12-15T11:02:04.023Z,80.30
2018-12-15T11:03:04.016Z,80.41
2018-12-15T11:04:04.002Z,80.72
2018-12-15T11:05:04.001Z,81.13
2018-12-15T11:06:03.977Z,81.35
2018-12-15T11:07:03.971Z,81.35
2018-12-15T11:08:03.955Z,81.03
2018-12-15T11:09:03.941Z,80.93
2018-12-15T11:10:03.939Z,81.24
2018-12-15T11:11:03.931Z,81.35
2018-12-15T11:12:03.915Z,81.13
2018-12-15T11:13:03.901Z,81.35
2018-12-15T11:14:03.896Z,80.93
2018-12-15T11:15:03.885Z,81.13
2018-12-15T11:16:03.873Z,81.56
2018-12-15T11:17:03.859Z,81.03
2018-12-15T11:18:03.854Z,81.03
2018-12-15T11:19:03.841Z,80.82
2018-12-15T11:20:03.839Z,81.87
2018-12-15T11:21:03.826Z,81.56
2018-12-15T11:22:03.806Z,81.83
2018-12-15T11:23:03.813Z,81.83
2018-12-15T11:24:03.785Z,81.13
2018-12-15T11:25:03.772Z,81.31
2018-12-15T11:26:03.761Z,81.24
2018-12-15T11:27:03.771Z,80.62
2018-12-15T11:28:03.750Z,79.99
2018-12-15T11:29:03.749Z,79.99
2018-12-15T11:30:03.733Z,80.16
2018-12-15T11:31:03.709Z,80.30
2018-12-15T11:32:03.703Z,81.03
2018-12-15T11:33:03.686Z,81.03
2018-12-15T11:34:03.681Z,81.13
2018-12-15T11:35:03.681Z,81.24
2018-12-15T11:36:03.662Z,81.13
2018-12-15T11:37:03.652Z,81.31
2018-12-15T11:38:03.638Z,80.99
2018-12-15T11:39:03.625Z,81.13
2018-12-15T11:40:03.625Z,81.41
2018-12-15T11:41:03.621Z,81.35
2018-12-15T11:42:03.594Z,81.13
2018-12-15T11:43:03.585Z,81.56
2018-12-15T11:44:03.571Z,81.76
2018-12-15T11:45:03.563Z,82.07
2018-12-15T11:46:03.564Z,82.07
2018-12-15T11:47:03.540Z,82.39
2018-12-15T11:48:03.603Z,81.97
2018-12-15T11:49:03.519Z,81.31
2018-12-15T11:50:03.515Z,82.07
2018-12-15T11:51:03.503Z,82.07
2018-12-15T11:52:03.495Z,81.73
2018-12-15T11:53:03.472Z,81.62
2018-12-15T11:54:03.464Z,81.41
2018-12-15T11:55:03.449Z,80.82
2018-12-15T11:56:03.449Z,81.10
2018-12-15T11:57:03.435Z,81.35
2018-12-15T11:58:03.425Z,81.24
2018-12-15T11:59:03.416Z,81.35
2018-12-15T12:00:03.400Z,81.97
2018-12-15T12:01:03.390Z,81.35
2018-12-15T12:02:03.382Z,81.35
2018-12-15T12:03:03.370Z,81.13
2018-12-15T12:04:03.366Z,81.10
2018-12-15T12:05:03.349Z,80.99
2018-12-15T12:06:03.345Z,81.31
2018-12-15T12:07:03.317Z,79.64
2018-12-15T12:08:03.319Z,79.57
2018-12-15T12:09:03.305Z,79.64
2018-12-15T12:10:03.309Z,79.33
2018-12-15T12:11:03.281Z,79.33
2018-12-15T12:12:03.272Z,79.01
2018-12-15T12:13:03.258Z,79.53
2018-12-15T12:14:03.248Z,79.43
2018-12-15T12:15:03.250Z,79.33
2018-12-15T12:16:03.237Z,79.53
2018-12-15T12:17:03.218Z,79.53
2018-12-15T12:18:03.267Z,79.95
2018-12-15T12:19:03.198Z,79.85
2018-12-15T12:20:03.185Z,80.05
2018-12-15T12:21:03.175Z,79.85
2018-12-15T12:22:03.161Z,79.53
2018-12-15T12:23:03.150Z,79.39
2018-12-15T12:24:03.140Z,78.70
2018-12-15T12:25:03.126Z,78.91
2018-12-15T12:26:03.127Z,76.61
2018-12-15T12:27:03.117Z,77.41
2018-12-15T12:28:03.146Z,77.34
2018-12-15T12:29:03.087Z,77.34
2018-12-15T12:30:03.079Z,77.45
2018-12-15T12:31:03.069Z,77.34
2018-12-15T12:32:03.053Z,77.55
2018-12-15T12:33:03.052Z,76.92
2018-12-15T12:34:03.031Z,77.76
2018-12-15T12:35:03.025Z,77.62
2018-12-15T12:36:03.015Z,77.76
2018-12-15T12:37:03.009Z,77.51
2018-12-15T12:38:02.994Z,78.28
2018-12-15T12:39:02.989Z,78.39
2018-12-15T12:40:02.969Z,77.62
2018-12-15T12:41:02.959Z,77.66
2018-12-15T12:42:02.948Z,77.34
2018-12-15T12:43:02.935Z,77.45
2018-12-15T12:44:02.925Z,77.76
2018-12-15T12:45:02.921Z,77.72
2018-12-15T12:46:02.911Z,77.31
2018-12-15T12:47:02.889Z,77.00
2018-12-15T12:48:02.887Z,77.34
2018-12-15T12:49:02.872Z,77.62
2018-12-15T12:50:02.869Z,77.66
2018-12-15T12:51:02.847Z,77.34
2018-12-15T12:52:02.841Z,77.03